Time;durP1;ratioP1;P1;durP2;ratioP2;P2;SDS_P1;SDS_P2;PMS_P1;PMS_P2;Temp;Humidity;BMP_temperature;BMP_pressure;BME280_temperature;BME280_humidity;BME280_pressure;Samples;Min_cycle;Max_cycle;Signal;HPM_P1;HPM_P2
2021/09/28 00:00:24;;;;;;;15.68;12.13;;;17.90;99.90;;;;;;5014906;28;20033;-69
2021/09/28 00:02:50;;;;;;;14.43;11.93;;;17.90;99.90;;;;;;5014248;28;20037;-69
2021/09/28 00:05:16;;;;;;;18.48;12.13;;;17.80;99.90;;;;;;5014482;28;20037;-72
2021/09/28 00:07:42;;;;;;;12.50;11.10;;;17.80;99.90;;;;;;4996699;28;20492;-71
2021/09/28 00:10:08;;;;;;;13.77;11.10;;;17.70;99.90;;;;;;5014505;28;20112;-72
2021/09/28 00:12:34;;;;;;;14.88;11.40;;;17.70;99.90;;;;;;5013990;28;20037;-71
2021/09/28 00:14:59;;;;;;;18.27;13.25;;;17.70;99.90;;;;;;5013530;28;20486;-71
2021/09/28 00:17:25;;;;;;;14.02;11.73;;;17.60;99.90;;;;;;4996486;28;20057;-72
2021/09/28 00:19:52;;;;;;;14.85;12.55;;;17.70;99.90;;;;;;5013967;28;20026;-71
2021/09/28 00:22:18;;;;;;;15.77;11.75;;;17.60;99.90;;;;;;5014442;28;20042;-71
2021/09/28 00:24:44;;;;;;;16.50;12.93;;;17.50;99.90;;;;;;5014041;28;20529;-71
2021/09/28 00:27:10;;;;;;;15.88;11.75;;;17.50;99.90;;;;;;4996495;28;20460;-71
2021/09/28 00:29:36;;;;;;;13.82;11.45;;;17.50;99.90;;;;;;5013997;28;20352;-70
2021/09/28 00:32:02;;;;;;;14.13;11.82;;;17.50;99.90;;;;;;4999361;28;20092;-71
2021/09/28 00:34:27;;;;;;;17.42;12.68;;;17.50;99.90;;;;;;5011495;28;20049;-70
2021/09/28 00:36:53;;;;;;;16.38;11.48;;;17.40;99.90;;;;;;5014037;28;20026;-72
2021/09/28 00:39:19;;;;;;;15.55;12.52;;;17.40;99.90;;;;;;5012626;28;20026;-71
2021/09/28 00:41:45;;;;;;;15.57;12.95;;;17.40;99.90;;;;;;5012203;28;20034;-71
2021/09/28 00:44:11;;;;;;;17.90;12.20;;;17.40;99.90;;;;;;5013607;28;20489;-70
2021/09/28 00:46:36;;;;;;;19.88;12.93;;;17.40;99.90;;;;;;5012462;28;20038;-72
2021/09/28 00:49:02;;;;;;;19.35;12.48;;;17.40;99.90;;;;;;5014035;28;20038;-70
2021/09/28 00:51:28;;;;;;;21.95;11.88;;;17.40;99.90;;;;;;5013689;28;20034;-71
2021/09/28 00:53:55;;;;;;;20.88;12.88;;;17.40;99.90;;;;;;5013374;28;20029;-71
2021/09/28 00:56:22;;;;;;;19.02;13.07;;;17.40;99.90;;;;;;5013324;28;20037;-71
2021/09/28 00:58:50;;;;;;;17.10;12.95;;;17.40;99.90;;;;;;5013310;28;20386;-70
2021/09/28 01:01:16;;;;;;;16.90;11.80;;;17.40;99.90;;;;;;5013867;28;20538;-71
2021/09/28 01:03:42;;;;;;;15.82;12.45;;;17.50;99.90;;;;;;5012258;28;20390;-70
2021/09/28 01:06:08;;;;;;;15.90;12.60;;;17.50;99.90;;;;;;5013109;28;20038;-71
2021/09/28 01:08:34;;;;;;;19.90;12.60;;;17.50;99.90;;;;;;5013482;28;20018;-71
2021/09/28 01:11:02;;;;;;;17.33;12.82;;;17.50;99.90;;;;;;5013302;28;20432;-72
2021/09/28 01:13:28;;;;;;;18.85;13.13;;;17.50;99.90;;;;;;5012407;28;20454;-71
2021/09/28 01:16:00;;;;;;;16.25;12.73;;;17.60;99.90;;;;;;5013466;28;20030;-70
2021/09/28 01:18:31;;;;;;;14.80;12.27;;;17.60;99.90;;;;;;5013265;28;20034;-70
2021/09/28 01:20:58;;;;;;;18.98;12.60;;;17.50;99.90;;;;;;5013312;28;20101;-70
2021/09/28 01:23:24;;;;;;;15.15;11.85;;;17.60;99.90;;;;;;5012012;28;20030;-70
2021/09/28 01:25:50;;;;;;;16.35;12.32;;;17.60;99.90;;;;;;5013036;28;20077;-70
2021/09/28 01:28:16;;;;;;;19.13;13.48;;;17.50;99.90;;;;;;5011961;28;20030;-70
2021/09/28 01:30:42;;;;;;;16.90;12.35;;;17.50;99.90;;;;;;5011867;28;20061;-71
2021/09/28 01:33:08;;;;;;;15.38;12.43;;;17.50;99.90;;;;;;5013177;28;20050;-70
2021/09/28 01:35:37;;;;;;;16.13;12.20;;;17.50;99.90;;;;;;5013221;28;20466;-71
2021/09/28 01:38:04;;;;;;;17.10;12.52;;;17.50;99.90;;;;;;5011918;28;20417;-71
2021/09/28 01:40:30;;;;;;;19.10;11.98;;;17.50;99.90;;;;;;5013156;28;20181;-71
2021/09/28 01:42:56;;;;;;;23.05;13.50;;;17.40;99.90;;;;;;5013130;28;20112;-70
2021/09/28 01:45:21;;;;;;;18.23;12.93;;;17.40;99.90;;;;;;5011760;28;20478;-71
2021/09/28 01:47:47;;;;;;;21.08;12.90;;;17.40;99.90;;;;;;5011814;28;20072;-71
2021/09/28 01:50:13;;;;;;;15.27;13.27;;;17.40;99.90;;;;;;5011735;28;20022;-70
2021/09/28 01:52:39;;;;;;;20.08;13.10;;;17.30;99.90;;;;;;5011633;28;20038;-71
2021/09/28 01:55:06;;;;;;;16.48;12.65;;;17.30;99.90;;;;;;5013089;28;20032;-71
2021/09/28 01:57:33;;;;;;;15.32;13.45;;;17.20;99.90;;;;;;5013289;28;20060;-70
2021/09/28 02:00:00;;;;;;;15.90;12.50;;;17.20;99.90;;;;;;5013079;28;20104;-70
2021/09/28 02:02:26;;;;;;;17.77;12.63;;;17.10;99.90;;;;;;5012964;28;20048;-70
2021/09/28 02:04:52;;;;;;;15.40;12.75;;;17.10;99.90;;;;;;5012972;28;20022;-69
2021/09/28 02:07:18;;;;;;;15.48;13.30;;;17.10;99.90;;;;;;5012691;28;20386;-69
2021/09/28 02:09:44;;;;;;;16.38;13.70;;;17.00;99.90;;;;;;5012891;28;20022;-70
2021/09/28 02:12:09;;;;;;;19.73;13.70;;;17.00;99.90;;;;;;5012733;28;20103;-71
2021/09/28 02:14:35;;;;;;;15.20;13.23;;;17.00;99.90;;;;;;5011506;28;20048;-71
2021/09/28 02:17:01;;;;;;;18.38;13.73;;;16.90;99.90;;;;;;5012867;28;20463;-70
2021/09/28 02:19:27;;;;;;;18.27;13.40;;;16.90;99.90;;;;;;5011511;28;20076;-70
2021/09/28 02:21:53;;;;;;;16.75;13.95;;;16.90;99.90;;;;;;5012745;28;20092;-69
2021/09/28 02:24:20;;;;;;;21.80;14.60;;;16.90;99.90;;;;;;5012742;28;20426;-71
2021/09/28 02:26:47;;;;;;;16.73;13.52;;;16.80;99.90;;;;;;5011441;28;20387;-71
2021/09/28 02:29:16;;;;;;;20.17;14.18;;;16.80;99.90;;;;;;5011368;28;20190;-69
2021/09/28 02:31:41;;;;;;;17.95;13.73;;;16.90;99.90;;;;;;5012359;28;20044;-71
2021/09/28 02:34:09;;;;;;;21.38;14.25;;;16.80;99.90;;;;;;5012757;28;20105;-71
2021/09/28 02:36:36;;;;;;;21.25;15.48;;;16.80;99.90;;;;;;5011665;28;20026;-71
2021/09/28 02:39:09;;;;;;;19.98;14.90;;;16.80;99.90;;;;;;5016399;28;20026;-72
2021/09/28 02:41:36;;;;;;;18.80;13.88;;;16.80;99.90;;;;;;5014863;28;20034;-70
2021/09/28 02:44:04;;;;;;;19.88;14.75;;;16.80;99.90;;;;;;5015990;28;20026;-69
2021/09/28 02:46:31;;;;;;;19.10;14.82;;;16.80;99.90;;;;;;5016015;28;20026;-70
2021/09/28 02:48:58;;;;;;;23.65;15.15;;;16.70;99.90;;;;;;5015938;28;20025;-70
2021/09/28 02:51:24;;;;;;;18.13;14.77;;;16.80;99.90;;;;;;5015898;28;20089;-72
2021/09/28 02:53:50;;;;;;;19.92;15.15;;;16.80;99.90;;;;;;5015853;28;20070;-70
2021/09/28 02:56:16;;;;;;;24.33;16.25;;;16.80;99.90;;;;;;5015836;28;20053;-69
2021/09/28 02:58:42;;;;;;;26.40;16.73;;;16.70;99.90;;;;;;5015827;28;20018;-71
2021/09/28 03:01:08;;;;;;;22.77;16.77;;;16.70;99.90;;;;;;5016037;28;20060;-68
2021/09/28 03:03:34;;;;;;;21.40;15.85;;;16.70;99.90;;;;;;5015762;28;20454;-73
2021/09/28 03:06:00;;;;;;;26.52;16.63;;;16.70;99.90;;;;;;5015882;28;20049;-68
2021/09/28 03:08:26;;;;;;;23.58;16.25;;;16.70;99.90;;;;;;5014383;28;20117;-69
2021/09/28 03:10:51;;;;;;;21.50;17.15;;;16.60;99.90;;;;;;5015205;28;20382;-69
2021/09/28 03:13:17;;;;;;;25.25;17.17;;;16.60;99.90;;;;;;5014263;28;20026;-70
2021/09/28 03:15:43;;;;;;;25.05;17.75;;;16.60;99.90;;;;;;5015479;28;20108;-70
2021/09/28 03:18:09;;;;;;;23.73;16.42;;;16.60;99.90;;;;;;5015577;28;20022;-70
2021/09/28 03:20:35;;;;;;;27.10;18.23;;;16.60;99.90;;;;;;5015150;28;20088;-70
2021/09/28 03:23:01;;;;;;;24.50;17.70;;;16.60;99.90;;;;;;5015294;28;20025;-69
2021/09/28 03:25:27;;;;;;;28.65;18.25;;;16.60;99.90;;;;;;5013989;28;20542;-70
2021/09/28 03:27:53;;;;;;;24.55;18.38;;;16.70;99.90;;;;;;5015260;28;20053;-71
2021/09/28 03:30:19;;;;;;;23.05;17.23;;;16.80;99.90;;;;;;5013884;28;20030;-71
2021/09/28 03:32:45;;;;;;;23.75;18.15;;;16.80;99.90;;;;;;5014668;28;20085;-70
2021/09/28 03:35:11;;;;;;;22.25;16.77;;;16.90;99.90;;;;;;5014830;28;20025;-70
2021/09/28 03:37:49;;;;;;;20.38;16.90;;;16.90;99.90;;;;;;5013633;28;20483;-72
2021/09/28 03:40:16;;;;;;;23.17;15.82;;;16.90;99.90;;;;;;5014908;28;20026;-71
2021/09/28 03:42:42;;;;;;;27.38;17.52;;;16.80;99.90;;;;;;5013649;28;20117;-70
2021/09/28 03:45:08;;;;;;;26.40;17.48;;;16.70;99.90;;;;;;5014886;28;20514;-70
2021/09/28 03:47:34;;;;;;;26.70;17.90;;;16.60;99.90;;;;;;5014575;28;20065;-72
2021/09/28 03:50:00;;;;;;;23.55;17.98;;;16.60;99.90;;;;;;5014802;28;20065;-72
2021/09/28 03:52:26;;;;;;;23.00;17.73;;;16.60;99.90;;;;;;5014784;28;20026;-70
2021/09/28 03:54:52;;;;;;;22.25;17.25;;;16.60;99.90;;;;;;5013399;28;20030;-71
2021/09/28 03:57:18;;;;;;;23.52;18.17;;;16.60;99.90;;;;;;5013396;28;20026;-71
2021/09/28 03:59:46;;;;;;;26.38;18.08;;;16.50;99.90;;;;;;5014603;28;20117;-71
2021/09/28 04:02:13;;;;;;;23.60;18.58;;;16.40;99.90;;;;;;5014620;28;20029;-71
2021/09/28 04:04:39;;;;;;;28.10;18.98;;;16.50;99.90;;;;;;5013257;28;20037;-73
2021/09/28 04:07:05;;;;;;;22.92;18.23;;;16.50;99.90;;;;;;5013195;28;20113;-70
2021/09/28 04:09:31;;;;;;;30.23;19.17;;;16.50;99.90;;;;;;5014725;28;20117;-70
2021/09/28 04:11:57;;;;;;;24.10;19.50;;;16.50;99.90;;;;;;5014404;28;20429;-71
2021/09/28 04:14:23;;;;;;;27.55;19.88;;;16.50;99.90;;;;;;5014289;28;20080;-71
2021/09/28 04:16:49;;;;;;;27.65;20.20;;;16.60;99.90;;;;;;5014316;28;20030;-72
2021/09/28 04:19:15;;;;;;;24.08;19.02;;;16.60;99.90;;;;;;5014292;28;20097;-70
2021/09/28 04:21:42;;;;;;;24.58;19.33;;;16.70;99.90;;;;;;5012975;28;20089;-72
2021/09/28 04:24:10;;;;;;;23.55;18.40;;;16.70;99.90;;;;;;5014171;28;20030;-73
2021/09/28 04:26:39;;;;;;;28.23;19.88;;;16.70;99.90;;;;;;5014178;28;20034;-71
2021/09/28 04:29:05;;;;;;;24.42;18.80;;;16.70;99.90;;;;;;5012736;28;20034;-72
2021/09/28 04:31:31;;;;;;;30.27;20.05;;;16.70;99.90;;;;;;5012446;28;20494;-75
2021/09/28 04:33:57;;;;;;;26.40;18.25;;;16.70;99.90;;;;;;5014075;28;20037;-73
2021/09/28 04:36:23;;;;;;;24.30;18.75;;;16.80;99.90;;;;;;5014281;28;20030;-71
2021/09/28 04:38:50;;;;;;;25.98;18.98;;;16.80;99.90;;;;;;5013799;28;20105;-71
2021/09/28 04:41:16;;;;;;;26.95;18.70;;;16.80;99.90;;;;;;5012661;28;20069;-72
2021/09/28 04:43:42;;;;;;;27.08;19.20;;;16.90;99.90;;;;;;5013931;28;20058;-73
2021/09/28 04:46:08;;;;;;;28.85;19.88;;;16.90;99.90;;;;;;5013859;28;20501;-72
2021/09/28 04:48:34;;;;;;;32.35;19.05;;;16.90;99.90;;;;;;5013779;28;20060;-72
2021/09/28 04:51:01;;;;;;;31.40;20.70;;;16.90;99.90;;;;;;5013746;28;20065;-71
2021/09/28 04:53:27;;;;;;;32.30;20.58;;;16.90;99.90;;;;;;5013672;28;20033;-72
2021/09/28 04:55:55;;;;;;;24.60;19.05;;;16.90;99.90;;;;;;5014010;28;20143;-72
2021/09/28 04:58:22;;;;;;;30.85;20.55;;;16.80;99.90;;;;;;5012046;28;20040;-70
2021/09/28 05:00:49;;;;;;;35.30;20.20;;;16.90;99.90;;;;;;5011511;28;20076;-72
2021/09/28 05:03:15;;;;;;;28.42;18.65;;;16.90;99.90;;;;;;5012110;28;20033;-73
2021/09/28 05:05:41;;;;;;;26.65;19.23;;;17.00;99.90;;;;;;5012227;28;20533;-72
2021/09/28 05:08:06;;;;;;;24.58;19.55;;;17.00;99.90;;;;;;5013501;28;20033;-71
2021/09/28 05:10:33;;;;;;;26.55;19.23;;;17.00;99.90;;;;;;5012062;28;20022;-71
2021/09/28 05:12:58;;;;;;;28.73;19.20;;;17.00;99.90;;;;;;5012051;28;20430;-71
2021/09/28 05:15:24;;;;;;;24.92;18.75;;;17.00;99.90;;;;;;5013740;28;20116;-72
2021/09/28 05:17:50;;;;;;;28.05;19.35;;;17.00;99.90;;;;;;5012131;28;20033;-71
2021/09/28 05:20:17;;;;;;;28.42;19.60;;;17.00;99.90;;;;;;5013652;28;20528;-71
2021/09/28 05:22:43;;;;;;;33.17;20.73;;;17.00;99.90;;;;;;5013294;28;20038;-73
2021/09/28 05:25:09;;;;;;;33.08;19.40;;;17.10;99.90;;;;;;5013248;28;20108;-71
2021/09/28 05:27:35;;;;;;;25.67;19.83;;;17.10;99.90;;;;;;5012004;28;20092;-71
2021/09/28 05:30:00;;;;;;;27.15;19.80;;;17.10;99.90;;;;;;5012999;28;20482;-71
2021/09/28 05:32:26;;;;;;;26.85;19.48;;;17.10;99.90;;;;;;4992618;28;20104;-71
2021/09/28 05:34:52;;;;;;;29.02;18.98;;;17.10;99.90;;;;;;4975945;28;20030;-69
2021/09/28 05:37:18;;;;;;;27.75;18.55;;;17.10;99.90;;;;;;4976052;28;20034;-71
2021/09/28 05:39:44;;;;;;;24.08;18.63;;;17.10;99.90;;;;;;4993511;28;20030;-72
2021/09/28 05:42:10;;;;;;;28.52;19.63;;;17.10;99.90;;;;;;4992931;28;20077;-72
2021/09/28 05:44:35;;;;;;;22.90;17.77;;;17.20;99.90;;;;;;4993443;28;20037;-72
2021/09/28 05:47:02;;;;;;;24.85;17.70;;;17.20;99.90;;;;;;4993215;28;20022;-72
2021/09/28 05:49:28;;;;;;;23.10;18.38;;;17.40;99.90;;;;;;4975543;28;20402;-70
2021/09/28 05:51:55;;;;;;;28.10;19.13;;;17.40;99.90;;;;;;4993616;28;20030;-71
2021/09/28 05:54:22;;;;;;;23.02;18.50;;;17.50;99.90;;;;;;4993307;28;20027;-71
2021/09/28 05:56:49;;;;;;;23.63;18.05;;;17.60;99.90;;;;;;4990727;28;20026;-69
2021/09/28 05:59:16;;;;;;;25.70;18.02;;;17.60;99.90;;;;;;4974965;28;20486;-67
2021/09/28 06:01:42;;;;;;;27.38;17.88;;;17.60;99.90;;;;;;4975456;28;20031;-70
2021/09/28 06:04:09;;;;;;;26.77;18.27;;;17.60;99.90;;;;;;4993217;28;20034;-69
2021/09/28 06:06:35;;;;;;;26.38;18.00;;;17.60;99.90;;;;;;4993258;28;20026;-69
2021/09/28 06:09:01;;;;;;;27.83;18.55;;;17.60;99.90;;;;;;4993442;28;20041;-69
2021/09/28 06:11:27;;;;;;;24.85;17.42;;;17.60;99.90;;;;;;4994766;28;20537;-69
2021/09/28 06:13:53;;;;;;;22.27;17.58;;;17.60;99.90;;;;;;4996800;28;20031;-71
2021/09/28 06:16:19;;;;;;;22.42;18.25;;;17.70;99.90;;;;;;4979243;28;20031;-69
2021/09/28 06:18:45;;;;;;;24.38;17.27;;;17.70;99.90;;;;;;4996467;28;20058;-72
2021/09/28 06:21:11;;;;;;;26.90;18.02;;;17.70;99.90;;;;;;4996601;28;20042;-70
2021/09/28 06:23:37;;;;;;;31.20;18.25;;;17.70;99.90;;;;;;4996651;28;20031;-70
2021/09/28 06:26:03;;;;;;;25.33;18.58;;;17.70;99.90;;;;;;4996634;28;20027;-70
2021/09/28 06:28:30;;;;;;;25.25;18.25;;;17.80;99.90;;;;;;4978959;28;20030;-69
2021/09/28 06:30:57;;;;;;;27.73;18.13;;;17.80;99.90;;;;;;4996508;28;20038;-69
2021/09/28 06:33:23;;;;;;;24.52;19.17;;;17.90;99.90;;;;;;5005248;28;20451;-71
2021/09/28 06:35:49;;;;;;;25.17;19.00;;;17.90;99.90;;;;;;4978741;28;20034;-71
2021/09/28 06:38:15;;;;;;;25.98;18.80;;;18.00;99.90;;;;;;4978790;28;20030;-72
2021/09/28 06:40:41;;;;;;;26.20;17.63;;;18.30;99.90;;;;;;4996225;28;20041;-70
2021/09/28 06:43:07;;;;;;;23.63;17.58;;;18.30;99.90;;;;;;4996417;28;20028;-71
2021/09/28 06:45:34;;;;;;;21.88;17.38;;;18.50;99.90;;;;;;4978650;28;20455;-71
2021/09/28 06:48:00;;;;;;;26.63;17.80;;;18.50;99.90;;;;;;4978632;28;20514;-71
2021/09/28 06:50:26;;;;;;;24.77;18.45;;;18.30;99.90;;;;;;4978577;28;20080;-70
2021/09/28 06:52:53;;;;;;;24.83;18.75;;;18.30;99.90;;;;;;4996057;28;20113;-70
2021/09/28 06:55:20;;;;;;;26.95;19.48;;;18.20;99.90;;;;;;4978454;28;20030;-69
2021/09/28 06:57:45;;;;;;;26.23;18.13;;;18.20;99.90;;;;;;4995975;28;20026;-69
2021/09/28 07:00:12;;;;;;;24.30;19.25;;;18.10;99.90;;;;;;4978410;28;20049;-71
2021/09/28 07:02:38;;;;;;;30.98;23.25;;;18.10;99.90;;;;;;4995670;28;20405;-69
2021/09/28 07:05:11;;;;;;;32.50;25.65;;;18.10;99.90;;;;;;4978300;28;20121;-69
2021/09/28 07:07:38;;;;;;;28.50;22.13;;;18.10;99.90;;;;;;4995910;28;20045;-70
2021/09/28 07:10:05;;;;;;;36.95;27.75;;;18.10;99.90;;;;;;4978332;28;20061;-70
2021/09/28 07:12:31;;;;;;;33.08;23.20;;;18.10;99.90;;;;;;4977899;28;20042;-69
2021/09/28 07:14:57;;;;;;;40.72;34.20;;;18.00;99.90;;;;;;4995612;28;20778;-70
2021/09/28 07:17:23;;;;;;;39.65;26.48;;;18.00;99.90;;;;;;4995688;28;20026;-70
2021/09/28 07:19:48;;;;;;;32.25;19.75;;;18.10;99.90;;;;;;4977851;28;20558;-70
2021/09/28 07:22:14;;;;;;;30.35;21.73;;;18.00;99.90;;;;;;4977579;28;20093;-69
2021/09/28 07:24:40;;;;;;;36.03;24.50;;;18.10;99.90;;;;;;4995638;28;20516;-73
2021/09/28 07:27:07;;;;;;;35.08;24.25;;;18.10;99.90;;;;;;4978095;28;20030;-72
2021/09/28 07:29:33;;;;;;;24.85;20.02;;;18.40;99.90;;;;;;4995465;28;20038;-73
2021/09/28 07:31:59;;;;;;;30.50;19.90;;;18.40;99.90;;;;;;4989445;28;20096;-71
2021/09/28 07:34:24;;;;;;;27.70;20.73;;;18.40;99.90;;;;;;5015190;28;20033;-71
2021/09/28 07:36:50;;;;;;;28.00;20.88;;;18.50;99.90;;;;;;5014453;28;20406;-72
2021/09/28 07:39:16;;;;;;;26.02;19.33;;;18.70;99.90;;;;;;5014893;28;20030;-72
2021/09/28 07:41:42;;;;;;;29.55;21.80;;;18.90;99.90;;;;;;5014833;28;20037;-72
2021/09/28 07:44:08;;;;;;;19.17;15.95;;;19.00;99.90;;;;;;5013550;28;20026;-71
2021/09/28 07:46:34;;;;;;;24.77;17.50;;;19.10;99.90;;;;;;5013426;28;20030;-72
2021/09/28 07:49:00;;;;;;;22.20;17.73;;;19.10;99.90;;;;;;5014771;28;20057;-72
2021/09/28 07:51:25;;;;;;;21.38;16.60;;;19.00;99.90;;;;;;5014911;28;20057;-72
2021/09/28 07:53:52;;;;;;;23.50;17.08;;;19.00;99.90;;;;;;5014799;28;20488;-71
2021/09/28 07:56:19;;;;;;;21.83;17.27;;;18.90;99.90;;;;;;5014668;28;20089;-71
2021/09/28 07:58:45;;;;;;;23.20;16.38;;;18.90;99.90;;;;;;5014581;28;20025;-71
2021/09/28 08:01:11;;;;;;;27.45;18.38;;;18.80;99.90;;;;;;5014532;28;20075;-71
2021/09/28 08:03:38;;;;;;;29.80;20.25;;;18.70;99.90;;;;;;5014533;28;20057;-70
2021/09/28 08:06:04;;;;;;;20.88;17.55;;;18.60;99.90;;;;;;5013150;28;20497;-72
2021/09/28 08:08:30;;;;;;;19.35;14.95;;;18.50;99.90;;;;;;5014438;28;20030;-71
2021/09/28 08:10:56;;;;;;;20.90;16.00;;;18.20;99.90;;;;;;5014225;28;20429;-71
2021/09/28 08:13:22;;;;;;;29.73;19.70;;;18.20;99.90;;;;;;5014611;28;20041;-71
2021/09/28 08:15:50;;;;;;;30.55;20.05;;;18.10;99.90;;;;;;5014314;28;20034;-71
2021/09/28 08:18:16;;;;;;;40.53;24.10;;;18.30;99.90;;;;;;5014238;28;20033;-71
2021/09/28 08:20:43;;;;;;;26.90;17.98;;;18.40;99.90;;;;;;5012847;28;20030;-72
2021/09/28 08:23:09;;;;;;;21.27;15.93;;;18.60;99.90;;;;;;5014174;28;20026;-70
2021/09/28 08:25:47;;;;;;;22.00;15.60;;;18.70;99.90;;;;;;5012668;28;20044;-71
2021/09/28 08:31:02;;;;;;;32.60;22.15;;;18.90;99.90;;;;;;5013760;28;20093;-71
2021/09/28 08:33:32;;;;;;;38.90;27.30;;;19.00;99.90;;;;;;5012665;28;20474;-71
2021/09/28 08:35:59;;;;;;;30.38;23.70;;;19.10;99.90;;;;;;5011936;28;20021;-71
2021/09/28 08:38:28;;;;;;;25.13;18.73;;;19.20;99.90;;;;;;5012980;28;20022;-71
2021/09/28 08:40:54;;;;;;;29.65;19.85;;;19.30;99.90;;;;;;5013864;28;20040;-71
2021/09/28 08:43:20;;;;;;;28.08;18.60;;;19.30;99.90;;;;;;5013600;28;20499;-71
2021/09/28 08:45:46;;;;;;;48.13;26.73;;;19.40;99.90;;;;;;5012446;28;20030;-70
2021/09/28 08:48:13;;;;;;;36.80;23.70;;;19.30;99.90;;;;;;5012312;28;20029;-70
2021/09/28 08:50:41;;;;;;;35.05;23.98;;;19.30;99.90;;;;;;5013726;28;20033;-71
2021/09/28 08:53:09;;;;;;;28.17;18.98;;;19.30;99.90;;;;;;5013395;28;20386;-71
2021/09/28 08:55:36;;;;;;;33.55;22.75;;;19.30;99.90;;;;;;5013582;28;20413;-70
2021/09/28 08:58:20;;;;;;;23.98;17.65;;;19.20;99.90;;;;;;5012149;28;20025;-71
2021/09/28 09:00:47;;;;;;;19.50;16.42;;;19.10;99.90;;;;;;5012248;28;20037;-71
2021/09/28 09:03:26;;;;;;;18.02;14.27;;;19.00;99.90;;;;;;5013562;28;20033;-71
2021/09/28 09:05:53;;;;;;;18.95;14.00;;;18.90;99.90;;;;;;5013474;28;20034;-71
2021/09/28 09:08:27;;;;;;;13.50;12.10;;;18.90;99.90;;;;;;5012805;28;20026;-71
2021/09/28 09:11:04;;;;;;;17.08;12.50;;;18.90;99.90;;;;;;5013053;28;20022;-71
2021/09/28 09:13:52;;;;;;;22.58;15.73;;;19.00;99.90;;;;;;5013454;28;20037;-70
2021/09/28 09:16:19;;;;;;;17.90;13.13;;;19.10;99.90;;;;;;5013152;28;20462;-71
2021/09/28 09:18:49;;;;;;;20.17;14.05;;;19.20;99.90;;;;;;5013340;28;20041;-70
2021/09/28 09:21:15;;;;;;;20.33;15.35;;;19.20;99.90;;;;;;5011990;28;20026;-71
2021/09/28 09:23:44;;;;;;;28.70;21.15;;;19.20;99.90;;;;;;5013414;28;20034;-70
2021/09/28 09:26:26;;;;;;;25.38;18.85;;;19.20;99.90;;;;;;5011997;28;20022;-70
2021/09/28 09:28:54;;;;;;;25.20;17.67;;;19.20;99.90;;;;;;5012037;28;20033;-71
2021/09/28 09:31:34;;;;;;;20.25;15.40;;;19.10;99.90;;;;;;5010377;28;20026;-70
2021/09/28 09:34:17;;;;;;;16.55;14.35;;;19.10;99.90;;;;;;4993639;28;20467;-70
2021/09/28 09:37:05;;;;;;;19.95;14.20;;;19.10;99.90;;;;;;4993671;28;20031;-70
2021/09/28 09:39:53;;;;;;;17.55;14.00;;;19.00;99.90;;;;;;4993233;28;20494;-71
2021/09/28 09:42:20;;;;;;;24.77;18.40;;;19.00;99.90;;;;;;4975973;28;20030;-71
2021/09/28 09:44:46;;;;;;;23.20;15.55;;;18.90;99.90;;;;;;4993451;28;20050;-70
2021/09/28 09:47:45;;;;;;;23.67;16.35;;;18.90;99.90;;;;;;4978981;28;20072;-70
2021/09/28 09:50:18;;;;;;;19.40;14.90;;;18.80;99.90;;;;;;4917737;29;20052;-70
2021/09/28 09:53:05;;;;;;;21.17;14.18;;;18.70;99.90;;;;;;4917639;29;20043;-69
2021/09/28 09:55:35;;;;;;;18.48;15.18;;;18.70;99.90;;;;;;4902053;29;20584;-71
2021/09/28 09:58:03;;;;;;;19.20;15.82;;;18.80;99.90;;;;;;4917759;29;20389;-72
2021/09/28 10:00:29;;;;;;;25.60;17.73;;;18.70;99.90;;;;;;4901904;29;20044;-72
2021/09/28 10:02:55;;;;;;;25.00;14.63;;;18.80;99.90;;;;;;4917688;29;20109;-73
2021/09/28 10:05:21;;;;;;;21.15;15.82;;;18.80;99.90;;;;;;4917869;29;20477;-71
2021/09/28 10:07:50;;;;;;;20.27;16.23;;;18.70;99.90;;;;;;4917915;29;20068;-71
2021/09/28 10:10:18;;;;;;;18.67;16.08;;;18.70;99.90;;;;;;4917131;29;20044;-71
2021/09/28 10:12:44;;;;;;;23.83;19.02;;;18.60;99.90;;;;;;4901215;29;20044;-71
2021/09/28 10:15:12;;;;;;;20.92;16.40;;;18.60;99.90;;;;;;4917429;29;20032;-72
2021/09/28 10:17:41;;;;;;;29.40;21.85;;;18.70;99.90;;;;;;4917560;29;20043;-71
2021/09/28 10:20:09;;;;;;;25.33;21.33;;;18.70;99.90;;;;;;4901626;29;20091;-71
2021/09/28 10:22:52;;;;;;;31.42;22.85;;;18.70;99.90;;;;;;4917277;29;20116;-70
2021/09/28 10:25:42;;;;;;;17.70;15.80;;;18.70;99.90;;;;;;4942706;28;20573;-72
2021/09/28 10:28:08;;;;;;;22.00;17.73;;;18.70;99.90;;;;;;4996675;28;20447;-72
2021/09/28 10:30:34;;;;;;;20.25;15.50;;;18.80;99.90;;;;;;4996273;28;20034;-72
2021/09/28 10:33:05;;;;;;;17.70;13.65;;;18.80;99.90;;;;;;5003022;28;20115;-71
2021/09/28 10:35:32;;;;;;;21.55;15.98;;;18.90;99.90;;;;;;5014642;28;20034;-71
2021/09/28 10:38:03;;;;;;;16.65;14.85;;;18.90;99.90;;;;;;5015912;28;20022;-72
2021/09/28 10:40:36;;;;;;;18.17;14.15;;;19.00;99.90;;;;;;5013616;28;20425;-72
2021/09/28 10:43:29;;;;;;;17.20;14.73;;;19.00;99.90;;;;;;5013803;28;20070;-72
2021/09/28 10:45:57;;;;;;;16.05;13.63;;;19.10;99.90;;;;;;5013308;28;20065;-71
2021/09/28 10:48:28;;;;;;;18.90;14.25;;;19.20;99.90;;;;;;4999378;28;20034;-71
2021/09/28 10:51:06;;;;;;;23.35;14.75;;;19.30;99.90;;;;;;5015734;28;20029;-71
2021/09/28 10:53:35;;;;;;;22.15;14.32;;;19.30;99.90;;;;;;5015382;28;20108;-72
2021/09/28 10:56:06;;;;;;;19.15;13.32;;;19.30;99.90;;;;;;5013375;28;20097;-70
2021/09/28 10:58:51;;;;;;;17.00;13.73;;;19.30;99.90;;;;;;5002466;28;20032;-68
2021/09/28 11:01:17;;;;;;;21.42;16.17;;;19.30;99.90;;;;;;5013677;28;20114;-71
2021/09/28 11:03:52;;;;;;;19.33;14.05;;;19.30;99.90;;;;;;5014739;28;20036;-72
2021/09/28 11:06:39;;;;;;;16.20;13.15;;;19.30;99.90;;;;;;5015050;28;20022;-70
2021/09/28 11:09:05;;;;;;;19.25;14.85;;;19.40;99.90;;;;;;5015153;28;20037;-68
2021/09/28 11:11:31;;;;;;;19.52;14.60;;;19.40;99.90;;;;;;5013823;28;20038;-69
2021/09/28 11:14:02;;;;;;;18.90;14.38;;;19.50;99.90;;;;;;5015091;28;20026;-70
2021/09/28 11:16:28;;;;;;;16.67;14.43;;;19.60;99.90;;;;;;5015011;28;20026;-73
2021/09/28 11:18:59;;;;;;;15.38;13.65;;;19.80;99.90;;;;;;5013559;28;20483;-69
2021/09/28 11:21:25;;;;;;;24.70;13.35;;;19.90;99.90;;;;;;5014655;28;20117;-70
2021/09/28 11:23:54;;;;;;;17.77;13.32;;;19.90;99.90;;;;;;5014976;28;20069;-72
2021/09/28 11:26:37;;;;;;;17.55;14.60;;;19.90;99.90;;;;;;5015287;28;20501;-72
2021/09/28 11:29:04;;;;;;;15.30;13.65;;;19.80;99.90;;;;;;5015015;28;20386;-72
2021/09/28 11:31:35;;;;;;;15.20;13.52;;;19.80;99.90;;;;;;5011979;28;20858;-72
2021/09/28 11:34:01;;;;;;;15.88;13.10;;;19.80;99.90;;;;;;4995573;28;20475;-72
2021/09/28 11:36:36;;;;;;;19.50;13.95;;;20.00;99.90;;;;;;4977950;28;20030;-71
2021/09/28 11:39:03;;;;;;;14.85;13.25;;;20.40;99.90;;;;;;4977443;28;20141;-70
2021/09/28 11:41:33;;;;;;;14.10;12.40;;;20.70;99.90;;;;;;4995383;28;20053;-72
2021/09/28 11:43:59;;;;;;;14.70;12.18;;;21.10;99.90;;;;;;4995662;28;20061;-71
2021/09/28 11:46:28;;;;;;;14.35;11.27;;;21.40;99.90;;;;;;4995130;28;20428;-71
2021/09/28 11:49:02;;;;;;;17.38;10.55;;;21.40;99.90;;;;;;4995196;28;20061;-71
2021/09/28 11:51:31;;;;;;;13.63;11.38;;;21.30;99.90;;;;;;4995157;28;20069;-71
2021/09/28 11:54:00;;;;;;;12.75;10.38;;;21.10;99.90;;;;;;4994922;28;20422;-72
2021/09/28 11:56:28;;;;;;;13.27;11.02;;;21.00;99.90;;;;;;4994993;28;20133;-72
2021/09/28 11:58:55;;;;;;;13.85;11.13;;;20.90;99.90;;;;;;4994976;28;20030;-72
2021/09/28 12:01:22;;;;;;;13.07;10.85;;;20.60;99.90;;;;;;4994999;28;20030;-72
2021/09/28 12:09:34;;;;;;;12.55;9.80;;;20.10;99.90;;;;;;4994676;28;20032;-71
2021/09/28 12:12:02;;;;;;;;;;;19.90;99.90;;;;;;4995204;28;20062;-71
2021/09/28 12:14:37;;;;;;;13.30;11.13;;;19.90;99.90;;;;;;4994813;28;19914;-72
2021/09/28 12:17:19;;;;;;;17.42;12.00;;;19.90;99.90;;;;;;4977230;28;20057;-71
2021/09/28 12:19:50;;;;;;;14.15;11.63;;;19.80;99.90;;;;;;4994880;28;20041;-71
2021/09/28 12:22:30;;;;;;;12.40;11.10;;;19.80;99.90;;;;;;4994596;28;20034;-71
2021/09/28 12:24:57;;;;;;;14.80;12.02;;;19.80;99.90;;;;;;4994606;28;20089;-71
2021/09/28 12:27:25;;;;;;;18.45;11.25;;;19.80;99.90;;;;;;4994035;28;20087;-71
2021/09/28 12:29:54;;;;;;;11.80;10.60;;;19.90;99.90;;;;;;4994415;28;20034;-71
2021/09/28 12:32:25;;;;;;;14.90;10.73;;;19.90;99.90;;;;;;4989525;28;20498;-71
2021/09/28 12:34:58;;;;;;;14.32;12.18;;;20.00;99.90;;;;;;5014116;28;20045;-71
2021/09/28 12:37:25;;;;;;;16.20;11.43;;;19.90;99.90;;;;;;5014067;28;20034;-73
2021/09/28 12:40:04;;;;;;;15.50;11.55;;;19.90;99.90;;;;;;5013842;28;20030;-71